createdAt,value
2023-04-04T00:00:47.507Z,101600.00
2023-04-04T00:03:15.833Z,101594.00
2023-04-04T00:05:44.067Z,101595.00
2023-04-04T00:08:12.095Z,101603.00
2023-04-04T00:10:40.144Z,101609.00
2023-04-04T00:13:08.626Z,101613.00
2023-04-04T00:15:37.087Z,101599.00
2023-04-04T00:18:04.914Z,101608.00
2023-04-04T00:20:32.939Z,101597.00
2023-04-04T00:23:00.874Z,101599.00
2023-04-04T00:25:28.860Z,101601.00
2023-04-04T00:28:01.186Z,101600.00
2023-04-04T00:30:30.038Z,101603.00
2023-04-04T00:32:58.594Z,101605.00
2023-04-04T00:35:26.409Z,101602.00
2023-04-04T00:37:54.326Z,101600.00
2023-04-04T00:40:22.837Z,101605.00
2023-04-04T00:42:50.807Z,101600.00
2023-04-04T00:45:18.814Z,101600.00
2023-04-04T00:47:47.071Z,101600.00
2023-04-04T00:50:15.826Z,101596.00
2023-04-04T00:52:43.837Z,101597.00
2023-04-04T00:55:11.704Z,101597.00
2023-04-04T00:57:39.557Z,101596.00
2023-04-04T01:00:10.843Z,101600.00
2023-04-04T01:02:38.875Z,101587.00
2023-04-04T01:05:06.921Z,101592.00
2023-04-04T01:07:36.719Z,101591.00
2023-04-04T01:10:06.376Z,101597.00
2023-04-04T01:12:34.979Z,101594.00
2023-04-04T01:15:02.998Z,101596.00
2023-04-04T01:17:30.852Z,101596.00
2023-04-04T01:20:08.858Z,101597.00
2023-04-04T01:22:44.251Z,101592.00
2023-04-04T01:25:12.363Z,101590.00
2023-04-04T01:27:43.087Z,101585.00
2023-04-04T01:30:15.203Z,101581.00
2023-04-04T01:32:49.701Z,101588.00
2023-04-04T01:35:39.584Z,101578.00
2023-04-04T01:38:26.308Z,101588.00
2023-04-04T01:41:00.559Z,101588.00
2023-04-04T01:43:30.869Z,101578.00
2023-04-04T01:45:59.903Z,101576.00
2023-04-04T01:48:28.275Z,101566.00
2023-04-04T01:50:58.686Z,101569.00
2023-04-04T01:53:28.292Z,101570.00
2023-04-04T01:55:56.294Z,101556.00
2023-04-04T01:58:24.267Z,101566.00
2023-04-04T02:00:52.436Z,101569.00
2023-04-04T02:03:20.081Z,101563.00
2023-04-04T02:05:47.988Z,101562.00
2023-04-04T02:08:16.026Z,101555.00
2023-04-04T02:10:51.211Z,101569.00
2023-04-04T02:13:20.184Z,101560.00
2023-04-04T02:15:51.070Z,101559.00
2023-04-04T02:18:19.905Z,101560.00
2023-04-04T02:20:47.867Z,101553.00
2023-04-04T02:23:15.924Z,101556.00
2023-04-04T02:25:44.454Z,101548.00
2023-04-04T02:28:12.676Z,101550.00
2023-04-04T02:30:41.036Z,101545.00
2023-04-04T02:33:09.340Z,101545.00
2023-04-04T02:35:37.845Z,101538.00
2023-04-04T02:38:06.887Z,101546.00
2023-04-04T02:40:43.083Z,101537.00
2023-04-04T02:43:11.206Z,101540.00
2023-04-04T02:45:39.824Z,101535.00
2023-04-04T02:48:40.210Z,101536.00
2023-04-04T02:51:08.407Z,101539.00
2023-04-04T02:53:36.388Z,101523.00
2023-04-04T02:56:16.782Z,101517.00
2023-04-04T02:58:44.572Z,101525.00
2023-04-04T03:01:12.771Z,101523.00
2023-04-04T03:03:40.931Z,101514.00
2023-04-04T03:06:08.996Z,101509.00
2023-04-04T03:08:36.790Z,101509.00
2023-04-04T03:11:04.687Z,101507.00
2023-04-04T03:13:32.684Z,101505.00
2023-04-04T03:16:03.279Z,101506.00
2023-04-04T03:18:38.254Z,101503.00
2023-04-04T03:21:08.609Z,101505.00
2023-04-04T03:23:36.658Z,101501.00
2023-04-04T03:26:04.940Z,101503.00
2023-04-04T03:28:32.775Z,101497.00
2023-04-04T03:31:05.539Z,101494.00
2023-04-04T03:33:37.225Z,101490.00
2023-04-04T03:36:12.946Z,101488.00
2023-04-04T03:38:41.254Z,101486.00
2023-04-04T03:41:10.739Z,101493.00
2023-04-04T03:43:38.638Z,101486.00
2023-04-04T03:46:07.220Z,101486.00
2023-04-04T03:48:35.414Z,101496.00
2023-04-04T03:51:06.404Z,101485.00
2023-04-04T03:53:35.956Z,101482.00
2023-04-04T03:56:04.237Z,101475.00
2023-04-04T03:58:32.175Z,101470.00
2023-04-04T04:00:59.933Z,101473.00
2023-04-04T04:03:31.432Z,101479.00
2023-04-04T04:05:59.614Z,101476.00
2023-04-04T04:08:28.069Z,101480.00
2023-04-04T04:10:56.096Z,101478.00
2023-04-04T04:13:24.029Z,101474.00
2023-04-04T04:15:54.884Z,101477.00
2023-04-04T04:18:26.564Z,101477.00
2023-04-04T04:20:59.650Z,101475.00
2023-04-04T04:23:27.730Z,101473.00
2023-04-04T04:25:55.832Z,101484.00
2023-04-04T04:28:33.390Z,101475.00
2023-04-04T04:31:09.359Z,101465.00
2023-04-04T04:33:43.519Z,101475.00
2023-04-04T04:36:11.931Z,101470.00
2023-04-04T04:38:55.079Z,101474.00
2023-04-04T04:41:23.249Z,101473.00
2023-04-04T04:43:53.046Z,101467.00
2023-04-04T04:46:21.687Z,101470.00
2023-04-04T04:48:49.837Z,101481.00
2023-04-04T04:51:20.335Z,101482.00
2023-04-04T04:53:52.710Z,101478.00
2023-04-04T04:56:21.597Z,101483.00
2023-04-04T04:58:52.568Z,101484.00
2023-04-04T05:01:26.927Z,101483.00
2023-04-04T05:03:56.908Z,101488.00
2023-04-04T05:06:32.949Z,101487.00
2023-04-04T05:09:00.909Z,101498.00
2023-04-04T05:11:32.820Z,101494.00
2023-04-04T05:14:02.177Z,101492.00
2023-04-04T05:16:38.521Z,101489.00
2023-04-04T05:19:09.291Z,101494.00
2023-04-04T05:21:43.470Z,101494.00
2023-04-04T05:24:17.753Z,101494.00
2023-04-04T05:26:46.237Z,101494.00
2023-04-04T05:29:14.395Z,101493.00
2023-04-04T05:31:46.774Z,101495.00
2023-04-04T05:34:19.437Z,101499.00
2023-04-04T05:36:49.242Z,101498.00
2023-04-04T05:39:18.084Z,101505.00
2023-04-04T05:41:57.404Z,101496.00
2023-04-04T05:44:25.757Z,101503.00
2023-04-04T05:46:54.078Z,101503.00
2023-04-04T05:49:22.624Z,101505.00
2023-04-04T05:51:57.341Z,101509.00
2023-04-04T05:54:26.539Z,101519.00
2023-04-04T05:56:56.184Z,101513.00
2023-04-04T05:59:40.651Z,101512.00
2023-04-04T06:02:10.732Z,101512.00
2023-04-04T06:04:42.411Z,101512.00
2023-04-04T06:07:15.304Z,101519.00
2023-04-04T06:09:43.553Z,101528.00
2023-04-04T06:12:12.386Z,101526.00
2023-04-04T06:14:41.475Z,101526.00
2023-04-04T06:17:10.237Z,101525.00
2023-04-04T06:19:38.096Z,101530.00
2023-04-04T06:22:06.201Z,101527.00
2023-04-04T06:24:37.540Z,101536.00
2023-04-04T06:27:08.345Z,101534.00
2023-04-04T06:29:40.343Z,101532.00
2023-04-04T06:32:09.786Z,101531.00
2023-04-04T06:34:41.189Z,101534.00
2023-04-04T06:37:10.248Z,101529.00
2023-04-04T06:39:49.531Z,101531.00
2023-04-04T06:42:23.461Z,101538.00
2023-04-04T06:44:53.347Z,101532.00
2023-04-04T06:47:21.598Z,101533.00
2023-04-04T06:49:49.742Z,101529.00
2023-04-04T06:52:21.801Z,101527.00
2023-04-04T06:54:50.382Z,101526.00
2023-04-04T06:57:18.553Z,101529.00
2023-04-04T06:59:47.427Z,101535.00
2023-04-04T07:02:15.254Z,101531.00
2023-04-04T07:04:43.220Z,101537.00
2023-04-04T07:07:15.083Z,101538.00
2023-04-04T07:09:43.068Z,101537.00
2023-04-04T07:12:12.669Z,101538.00
2023-04-04T07:14:40.529Z,101541.00
2023-04-04T07:17:21.353Z,101541.00
2023-04-04T07:19:55.006Z,101543.00
2023-04-04T07:22:22.945Z,101540.00
2023-04-04T07:24:50.898Z,101541.00
2023-04-04T07:27:18.787Z,101538.00
2023-04-04T07:29:46.953Z,101539.00
2023-04-04T07:32:14.685Z,101534.00
2023-04-04T07:34:43.124Z,101535.00
2023-04-04T07:37:11.137Z,101543.00
2023-04-04T07:39:39.066Z,101530.00
2023-04-04T07:42:09.908Z,101538.00
2023-04-04T07:44:37.783Z,101537.00
2023-04-04T07:47:09.998Z,101532.00
2023-04-04T07:49:39.938Z,101531.00
2023-04-04T07:52:07.748Z,101536.00
2023-04-04T07:54:35.986Z,101532.00
2023-04-04T07:57:06.810Z,101531.00
2023-04-04T07:59:34.965Z,101521.00
2023-04-04T08:02:03.246Z,101527.00
2023-04-04T08:04:31.264Z,101529.00
2023-04-04T08:06:59.165Z,101530.00
2023-04-04T08:09:31.754Z,101522.00
2023-04-04T08:11:59.852Z,101524.00
2023-04-04T08:14:27.901Z,101529.00
2023-04-04T08:16:55.894Z,101529.00
2023-04-04T08:19:24.172Z,101523.00
2023-04-04T08:21:52.134Z,101521.00
2023-04-04T08:24:22.575Z,101526.00
2023-04-04T08:27:04.635Z,101527.00
2023-04-04T08:29:34.724Z,101523.00
2023-04-04T08:32:03.013Z,101523.00
2023-04-04T08:34:31.026Z,101526.00
2023-04-04T08:37:00.269Z,101523.00
2023-04-04T08:39:28.221Z,101522.00
2023-04-04T08:42:06.009Z,101518.00
2023-04-04T08:44:35.225Z,101522.00
2023-04-04T08:47:05.464Z,101522.00
2023-04-04T08:49:34.535Z,101523.00
2023-04-04T08:52:02.519Z,101514.00
2023-04-04T08:54:33.056Z,101519.00
2023-04-04T08:57:01.088Z,101525.00
2023-04-04T08:59:29.125Z,101520.00
2023-04-04T09:02:17.289Z,101517.00
2023-04-04T09:04:51.534Z,101517.00
2023-04-04T09:07:46.546Z,101514.00
2023-04-04T09:10:14.335Z,101519.00
2023-04-04T09:12:42.852Z,101515.00
2023-04-04T09:15:13.465Z,101517.00
2023-04-04T09:17:41.425Z,101514.00
2023-04-04T09:20:28.006Z,101509.00
2023-04-04T09:22:55.840Z,101507.00
2023-04-04T09:25:23.649Z,101506.00
2023-04-04T09:27:53.567Z,101502.00
2023-04-04T09:30:22.297Z,101508.00
2023-04-04T09:32:50.243Z,101504.00
2023-04-04T09:35:18.024Z,101501.00
2023-04-04T09:37:46.388Z,101497.00
2023-04-04T09:40:17.545Z,101501.00
2023-04-04T09:42:45.824Z,101491.00
2023-04-04T09:45:19.464Z,101495.00
2023-04-04T09:47:54.320Z,101488.00
2023-04-04T09:50:24.052Z,101492.00
2023-04-04T09:52:55.935Z,101492.00
2023-04-04T09:55:23.585Z,101490.00
2023-04-04T09:57:51.630Z,101496.00
2023-04-04T10:00:22.770Z,101495.00
2023-04-04T10:02:53.745Z,101504.00
2023-04-04T10:05:21.849Z,101501.00
2023-04-04T10:07:49.861Z,101499.00
2023-04-04T10:10:17.747Z,101497.00
2023-04-04T10:13:05.590Z,101509.00
2023-04-04T10:15:39.601Z,101504.00
2023-04-04T10:18:08.403Z,101498.00
2023-04-04T10:20:36.250Z,101496.00
2023-04-04T10:23:07.726Z,101503.00
2023-04-04T10:25:37.474Z,101502.00
2023-04-04T10:28:05.162Z,101504.00
2023-04-04T10:30:33.476Z,101500.00
2023-04-04T10:33:07.937Z,101497.00
2023-04-04T10:35:35.793Z,101493.00
2023-04-04T10:38:03.759Z,101494.00
2023-04-04T10:40:35.617Z,101494.00
2023-04-04T10:43:07.041Z,101491.00
2023-04-04T10:45:35.967Z,101491.00
2023-04-04T10:48:08.877Z,101494.00
2023-04-04T10:50:39.568Z,101489.00
2023-04-04T10:53:07.411Z,101489.00
2023-04-04T10:55:35.869Z,101483.00
2023-04-04T10:58:03.730Z,101487.00
2023-04-04T11:00:31.787Z,101485.00
2023-04-04T11:03:01.472Z,101476.00
2023-04-04T11:05:47.594Z,101477.00
2023-04-04T11:08:20.895Z,101471.00
2023-04-04T11:10:49.313Z,101463.00
2023-04-04T11:13:18.871Z,101458.00
2023-04-04T11:15:48.056Z,101469.00
2023-04-04T11:18:30.637Z,101454.00
2023-04-04T11:21:03.137Z,101452.00
2023-04-04T11:23:39.644Z,101455.00
2023-04-04T11:26:07.827Z,101458.00
2023-04-04T11:28:35.578Z,101452.00
2023-04-04T11:31:18.835Z,101443.00
2023-04-04T11:34:02.694Z,101437.00
2023-04-04T11:36:40.438Z,101432.00
2023-04-04T11:39:10.327Z,101429.00
2023-04-04T11:42:00.137Z,101421.00
2023-04-04T11:44:31.236Z,101419.00
2023-04-04T11:47:04.735Z,101414.00
2023-04-04T11:49:39.929Z,101411.00
2023-04-04T11:52:11.747Z,101406.00
2023-04-04T11:54:40.011Z,101399.00
2023-04-04T11:57:17.899Z,101396.00
2023-04-04T11:59:48.994Z,101403.00
2023-04-04T12:02:19.499Z,101409.00
2023-04-04T12:04:47.698Z,101400.00
2023-04-04T12:07:15.844Z,101400.00
2023-04-04T12:09:44.036Z,101401.00
2023-04-04T12:12:14.793Z,101401.00
2023-04-04T12:14:43.587Z,101398.00
2023-04-04T12:17:11.545Z,101395.00
2023-04-04T12:19:40.430Z,101399.00
2023-04-04T12:22:11.992Z,101394.00
2023-04-04T12:24:39.853Z,101392.00
2023-04-04T12:27:07.532Z,101387.00
2023-04-04T12:29:37.853Z,101377.00
2023-04-04T12:32:06.056Z,101379.00
2023-04-04T12:34:34.551Z,101374.00
2023-04-04T12:37:03.234Z,101373.00
2023-04-04T12:39:32.417Z,101369.00
2023-04-04T12:42:01.951Z,101366.00
2023-04-04T12:44:30.950Z,101360.00
2023-04-04T12:47:06.223Z,101360.00
2023-04-04T12:49:42.980Z,101356.00
2023-04-04T12:52:17.752Z,101351.00
2023-04-04T12:54:48.714Z,101337.00
2023-04-04T12:57:22.317Z,101342.00
2023-04-04T12:59:50.924Z,101334.00
2023-04-04T13:02:22.385Z,101325.00
2023-04-04T13:04:57.803Z,101323.00
2023-04-04T13:07:26.909Z,101321.00
2023-04-04T13:10:05.108Z,101313.00
2023-04-04T13:12:51.598Z,101318.00
2023-04-04T13:15:19.447Z,101306.00
2023-04-04T13:17:47.863Z,101305.00
2023-04-04T13:20:16.627Z,101302.00
2023-04-04T13:22:57.619Z,101299.00
2023-04-04T13:25:26.110Z,101300.00
2023-04-04T13:27:54.409Z,101296.00
2023-04-04T13:30:22.506Z,101288.00
2023-04-04T13:32:50.653Z,101290.00
2023-04-04T13:35:18.415Z,101291.00
2023-04-04T13:37:46.311Z,101278.00
2023-04-04T13:40:14.650Z,101278.00
2023-04-04T13:42:42.454Z,101271.00
2023-04-04T13:45:10.330Z,101273.00
2023-04-04T13:47:38.214Z,101268.00
2023-04-04T13:50:06.739Z,101265.00
2023-04-04T13:52:34.516Z,101261.00
2023-04-04T13:55:05.883Z,101262.00
2023-04-04T13:57:33.684Z,101255.00
2023-04-04T14:00:01.768Z,101257.00
2023-04-04T14:02:37.282Z,101252.00
2023-04-04T14:05:05.944Z,101254.00
2023-04-04T14:07:33.907Z,101245.00
2023-04-04T14:10:01.976Z,101241.00
2023-04-04T14:12:29.657Z,101244.00
2023-04-04T14:14:57.349Z,101234.00
2023-04-04T14:17:25.375Z,101238.00
2023-04-04T14:19:53.395Z,101236.00
2023-04-04T14:22:21.693Z,101232.00
2023-04-04T14:24:49.665Z,101236.00
2023-04-04T14:27:17.521Z,101232.00
2023-04-04T14:29:45.385Z,101234.00
2023-04-04T14:32:13.291Z,101233.00
2023-04-04T14:34:41.216Z,101230.00
2023-04-04T14:37:08.873Z,101229.00
2023-04-04T14:39:36.807Z,101231.00
2023-04-04T14:42:04.850Z,101230.00
2023-04-04T14:44:35.603Z,101233.00
2023-04-04T14:47:03.966Z,101221.00
2023-04-04T14:49:32.048Z,101226.00
2023-04-04T14:51:59.819Z,101231.00
2023-04-04T14:54:27.869Z,101230.00
2023-04-04T14:56:57.433Z,101225.00
2023-04-04T14:59:25.529Z,101220.00
2023-04-04T15:01:53.447Z,101217.00
2023-04-04T15:04:21.363Z,101207.00
2023-04-04T15:06:49.652Z,101216.00
2023-04-04T15:09:17.590Z,101210.00
2023-04-04T15:11:45.674Z,101211.00
2023-04-04T15:14:13.534Z,101218.00
2023-04-04T15:16:41.649Z,101209.00
2023-04-04T15:19:11.044Z,101209.00
2023-04-04T15:21:41.800Z,101207.00
2023-04-04T15:24:09.565Z,101203.00
2023-04-04T15:26:37.164Z,101195.00
2023-04-04T15:29:05.169Z,101198.00
2023-04-04T15:31:33.072Z,101190.00
2023-04-04T15:34:00.978Z,101192.00
2023-04-04T15:36:29.170Z,101192.00
2023-04-04T15:38:57.086Z,101187.00
2023-04-04T15:41:28.530Z,101184.00
2023-04-04T15:43:56.179Z,101178.00
2023-04-04T15:46:23.941Z,101181.00
2023-04-04T15:48:56.198Z,101186.00
2023-04-04T15:51:23.971Z,101180.00
2023-04-04T15:53:55.732Z,101180.00
2023-04-04T15:56:23.585Z,101174.00
2023-04-04T15:58:51.855Z,101169.00
2023-04-04T16:01:19.684Z,101171.00
2023-04-04T16:03:47.562Z,101164.00
2023-04-04T16:06:15.491Z,101168.00
2023-04-04T16:08:43.595Z,101169.00
2023-04-04T16:11:11.679Z,101168.00
2023-04-04T16:13:41.859Z,101156.00
2023-04-04T16:16:09.985Z,101164.00
2023-04-04T16:18:37.963Z,101159.00
2023-04-04T16:21:06.017Z,101159.00
2023-04-04T16:23:33.791Z,101161.00
2023-04-04T16:26:01.657Z,101155.00
2023-04-04T16:28:29.457Z,101163.00
2023-04-04T16:30:59.772Z,101158.00
2023-04-04T16:33:29.650Z,101155.00
2023-04-04T16:35:57.409Z,101152.00
2023-04-04T16:38:25.139Z,101146.00
2023-04-04T16:40:53.107Z,101149.00
2023-04-04T16:43:23.834Z,101150.00
2023-04-04T16:45:52.881Z,101144.00
2023-04-04T16:48:20.662Z,101137.00
2023-04-04T16:50:48.275Z,101137.00
2023-04-04T16:53:16.332Z,101134.00
2023-04-04T16:55:44.187Z,101144.00
2023-04-04T16:58:11.956Z,101131.00
2023-04-04T17:00:40.567Z,101134.00
2023-04-04T17:03:08.598Z,101140.00
2023-04-04T17:05:36.402Z,101144.00
2023-04-04T17:08:04.138Z,101144.00
2023-04-04T17:10:31.900Z,101140.00
2023-04-04T17:12:59.820Z,101141.00
2023-04-04T17:15:29.577Z,101143.00
2023-04-04T17:17:57.735Z,101138.00
2023-04-04T17:20:28.243Z,101141.00
2023-04-04T17:22:58.040Z,101141.00
2023-04-04T17:25:29.478Z,101140.00
2023-04-04T17:27:57.865Z,101144.00
2023-04-04T17:30:26.740Z,101136.00
2023-04-04T17:32:55.594Z,101144.00
2023-04-04T17:35:25.179Z,101139.00
2023-04-04T17:37:56.445Z,101149.00
2023-04-04T17:40:24.583Z,101145.00
2023-04-04T17:42:52.326Z,101144.00
2023-04-04T17:45:20.257Z,101145.00
2023-04-04T17:47:48.171Z,101147.00
2023-04-04T17:50:16.338Z,101145.00
2023-04-04T17:52:44.276Z,101148.00
2023-04-04T17:55:12.444Z,101147.00
2023-04-04T17:57:41.234Z,101145.00
2023-04-04T18:00:09.838Z,101147.00
2023-04-04T18:02:38.479Z,101150.00
2023-04-04T18:05:06.368Z,101145.00
2023-04-04T18:07:34.045Z,101144.00
2023-04-04T18:10:01.742Z,101145.00
2023-04-04T18:12:30.600Z,101148.00
2023-04-04T18:14:59.017Z,101154.00
2023-04-04T18:17:28.643Z,101155.00
2023-04-04T18:19:57.888Z,101160.00
2023-04-04T18:22:27.418Z,101151.00
2023-04-04T18:24:55.272Z,101156.00
2023-04-04T18:27:23.701Z,101148.00
2023-04-04T18:29:51.758Z,101158.00
2023-04-04T18:32:21.837Z,101153.00
2023-04-04T18:34:49.554Z,101154.00
2023-04-04T18:37:17.381Z,101156.00
2023-04-04T18:39:45.053Z,101159.00
2023-04-04T18:42:16.038Z,101149.00
2023-04-04T18:44:44.105Z,101149.00
2023-04-04T18:47:11.981Z,101143.00
2023-04-04T18:49:39.816Z,101147.00
2023-04-04T18:52:07.721Z,101158.00
2023-04-04T18:54:35.935Z,101160.00
2023-04-04T18:57:04.376Z,101156.00
2023-04-04T18:59:32.292Z,101150.00
2023-04-04T19:02:01.149Z,101155.00
2023-04-04T19:04:29.717Z,101160.00
2023-04-04T19:06:58.010Z,101154.00
2023-04-04T19:09:26.220Z,101161.00
2023-04-04T19:11:54.251Z,101159.00
2023-04-04T19:14:22.043Z,101159.00
2023-04-04T19:16:50.353Z,101158.00
2023-04-04T19:19:18.990Z,101161.00
2023-04-04T19:21:49.505Z,101163.00
2023-04-04T19:24:17.880Z,101160.00
2023-04-04T19:26:45.945Z,101161.00
2023-04-04T19:29:14.510Z,101158.00
2023-04-04T19:31:42.230Z,101162.00
2023-04-04T19:34:10.134Z,101154.00
2023-04-04T19:36:38.155Z,101153.00
2023-04-04T19:39:06.724Z,101154.00
2023-04-04T19:41:35.159Z,101151.00
2023-04-04T19:44:04.556Z,101153.00
2023-04-04T19:46:33.253Z,101152.00
2023-04-04T19:49:11.901Z,101150.00
2023-04-04T19:51:42.908Z,101152.00
2023-04-04T19:54:15.309Z,101159.00
2023-04-04T19:56:46.651Z,101150.00
2023-04-04T19:59:33.689Z,101152.00
2023-04-04T20:02:01.895Z,101162.00
2023-04-04T20:04:29.762Z,101150.00
2023-04-04T20:06:57.472Z,101156.00
2023-04-04T20:09:33.372Z,101152.00
2023-04-04T20:12:01.075Z,101149.00
2023-04-04T20:14:28.835Z,101155.00
2023-04-04T20:16:56.721Z,101153.00
2023-04-04T20:19:25.115Z,101155.00
2023-04-04T20:21:52.909Z,101156.00
2023-04-04T20:24:23.819Z,101144.00
2023-04-04T20:26:55.255Z,101151.00
2023-04-04T20:29:27.624Z,101157.00
2023-04-04T20:31:57.826Z,101149.00
2023-04-04T20:34:25.962Z,101157.00
2023-04-04T20:36:56.332Z,101151.00
2023-04-04T20:39:53.424Z,101148.00
2023-04-04T20:42:30.424Z,101155.00
2023-04-04T20:44:58.502Z,101150.00
2023-04-04T20:47:40.591Z,101154.00
2023-04-04T20:50:17.901Z,101152.00
2023-04-04T20:53:06.043Z,101143.00
2023-04-04T20:55:34.766Z,101152.00
2023-04-04T20:58:06.978Z,101145.00
2023-04-04T21:00:37.358Z,101153.00
2023-04-04T21:03:12.450Z,101154.00
2023-04-04T21:05:41.732Z,101154.00
2023-04-04T21:08:27.192Z,101148.00
2023-04-04T21:10:55.996Z,101149.00
2023-04-04T21:13:28.490Z,101145.00
2023-04-04T21:16:02.656Z,101144.00
2023-04-04T21:18:31.178Z,101143.00
2023-04-04T21:21:04.071Z,101146.00
2023-04-04T21:23:33.602Z,101142.00
2023-04-04T21:26:02.704Z,101144.00
2023-04-04T21:28:32.171Z,101138.00
2023-04-04T21:31:00.261Z,101138.00
2023-04-04T21:33:28.828Z,101140.00
2023-04-04T21:35:56.604Z,101139.00
2023-04-04T21:38:27.622Z,101128.00
2023-04-04T21:40:57.101Z,101129.00
2023-04-04T21:43:25.042Z,101127.00
2023-04-04T21:45:56.135Z,101129.00
2023-04-04T21:48:24.332Z,101120.00
2023-04-04T21:50:52.560Z,101123.00
2023-04-04T21:53:22.670Z,101115.00
2023-04-04T21:55:50.923Z,101118.00
2023-04-04T21:58:19.373Z,101114.00
2023-04-04T22:00:48.140Z,101120.00
2023-04-04T22:03:16.387Z,101116.00
2023-04-04T22:05:44.568Z,101116.00
2023-04-04T22:08:12.527Z,101115.00
2023-04-04T22:10:45.823Z,101113.00
2023-04-04T22:13:17.472Z,101106.00
2023-04-04T22:15:47.481Z,101104.00
2023-04-04T22:18:17.304Z,101099.00
2023-04-04T22:20:46.046Z,101103.00
2023-04-04T22:23:15.705Z,101108.00
2023-04-04T22:25:43.778Z,101101.00
2023-04-04T22:28:11.996Z,101104.00
2023-04-04T22:30:42.957Z,101099.00
2023-04-04T22:33:11.403Z,101102.00
2023-04-04T22:35:40.369Z,101107.00
2023-04-04T22:38:08.594Z,101094.00
2023-04-04T22:40:36.566Z,101099.00
2023-04-04T22:43:04.316Z,101088.00
2023-04-04T22:45:34.026Z,101092.00
2023-04-04T22:48:02.501Z,101089.00
2023-04-04T22:50:30.956Z,101087.00
2023-04-04T22:52:58.988Z,101092.00
2023-04-04T22:55:27.353Z,101100.00
2023-04-04T22:57:55.170Z,101096.00
2023-04-04T23:00:23.227Z,101087.00
2023-04-04T23:02:54.320Z,101091.00
2023-04-04T23:05:22.111Z,101086.00
2023-04-04T23:07:53.556Z,101091.00
2023-04-04T23:10:21.753Z,101086.00
2023-04-04T23:12:49.608Z,101093.00
2023-04-04T23:15:17.518Z,101093.00
2023-04-04T23:17:46.811Z,101082.00
2023-04-04T23:20:14.714Z,101090.00
2023-04-04T23:22:45.299Z,101088.00
2023-04-04T23:25:13.400Z,101082.00
2023-04-04T23:27:41.472Z,101079.00
2023-04-04T23:30:12.616Z,101075.00
2023-04-04T23:32:40.626Z,101070.00
2023-04-04T23:35:08.773Z,101076.00
2023-04-04T23:37:37.492Z,101067.00
2023-04-04T23:40:07.230Z,101071.00
2023-04-04T23:42:35.232Z,101062.00
2023-04-04T23:45:04.955Z,101068.00
2023-04-04T23:47:32.943Z,101056.00
2023-04-04T23:50:01.620Z,101067.00
2023-04-04T23:52:29.494Z,101063.00
2023-04-04T23:54:57.387Z,101051.00
2023-04-04T23:57:25.103Z,101061.00
2023-04-04T23:59:52.921Z,101050.00
